Time;durP1;ratioP1;P1;durP2;ratioP2;P2;SDS_P1;SDS_P2;PMS_P1;PMS_P2;Temp;Humidity;BMP_temperature;BMP_pressure;BME280_temperature;BME280_humidity;BME280_pressure;Samples;Min_cycle;Max_cycle;Signal;HPM_P1;HPM_P2
2022/01/16 00:01:42;;;;;;;33.25;20.67;;;;;;;;;;5011525;28;20128;-74
2022/01/16 00:04:11;;;;;;;32.03;21.58;;;;;;;;;;4999862;28;20054;-73
2022/01/16 00:06:38;;;;;;;29.75;20.58;;;;;;;;;;5012149;28;20070;-73
2022/01/16 00:09:05;;;;;;;25.33;17.77;;;;;;;;;;4998586;28;20050;-74
2022/01/16 00:11:32;;;;;;;28.20;16.95;;;;;;;;;;5012294;28;20054;-74
2022/01/16 00:13:58;;;;;;;20.42;13.85;;;;;;;;;;4997218;28;20333;-74
2022/01/16 00:16:25;;;;;;;26.90;20.05;;;;;;;;;;5011366;28;20049;-74
2022/01/16 00:18:54;;;;;;;30.25;21.25;;;;;;;;;;5011086;28;20056;-74
2022/01/16 00:21:30;;;;;;;32.35;21.70;;;;;;;;;;5011589;28;20506;-74
2022/01/16 00:23:57;;;;;;;32.28;22.33;;;;;;;;;;5009835;28;20104;-74
2022/01/16 00:26:23;;;;;;;28.60;19.77;;;;;;;;;;5012048;28;20049;-74
2022/01/16 00:28:51;;;;;;;21.05;14.73;;;;;;;;;;5009146;28;20080;-73
2022/01/16 00:31:18;;;;;;;20.03;12.83;;;;;;;;;;5011595;28;20045;-73
2022/01/16 00:33:45;;;;;;;18.60;13.18;;;;;;;;;;5008281;28;20137;-73
2022/01/16 00:36:18;;;;;;;19.77;13.70;;;;;;;;;;5011888;28;20042;-73
2022/01/16 00:38:49;;;;;;;22.73;13.50;;;;;;;;;;5007117;28;20062;-73
2022/01/16 00:41:18;;;;;;;21.58;13.65;;;;;;;;;;5011350;28;20050;-73
2022/01/16 00:43:44;;;;;;;24.90;17.52;;;;;;;;;;5006578;28;20108;-73
2022/01/16 00:46:11;;;;;;;24.23;16.00;;;;;;;;;;5011826;28;20497;-73
2022/01/16 00:48:37;;;;;;;33.92;19.42;;;;;;;;;;5005878;28;20085;-73
2022/01/16 00:51:04;;;;;;;31.98;20.50;;;;;;;;;;5011554;28;20486;-75
2022/01/16 00:53:30;;;;;;;21.75;14.77;;;;;;;;;;5004650;28;20501;-73
2022/01/16 00:55:57;;;;;;;35.95;19.45;;;;;;;;;;5011942;28;20494;-73
2022/01/16 00:58:23;;;;;;;33.30;20.48;;;;;;;;;;5003781;28;20108;-73
2022/01/16 01:00:50;;;;;;;30.98;19.55;;;;;;;;;;5011677;28;20049;-73
2022/01/16 01:03:17;;;;;;;31.23;19.33;;;;;;;;;;5003118;28;20406;-74
2022/01/16 01:05:43;;;;;;;28.55;19.27;;;;;;;;;;5010167;28;20512;-73
2022/01/16 01:08:10;;;;;;;28.23;20.13;;;;;;;;;;5002324;28;20081;-73
2022/01/16 01:10:39;;;;;;;30.52;21.45;;;;;;;;;;5006990;28;20041;-73
2022/01/16 01:13:13;;;;;;;32.60;23.15;;;;;;;;;;5009275;28;20104;-74
2022/01/16 01:15:46;;;;;;;26.90;20.90;;;;;;;;;;5007881;28;20057;-73
2022/01/16 01:18:13;;;;;;;29.08;21.33;;;;;;;;;;5011445;28;20471;-73
2022/01/16 01:20:41;;;;;;;29.90;21.23;;;;;;;;;;5007258;28;20082;-73
2022/01/16 01:23:08;;;;;;;31.55;19.85;;;;;;;;;;5009684;28;20498;-73
2022/01/16 01:25:35;;;;;;;30.27;21.25;;;;;;;;;;5007286;28;20117;-73
2022/01/16 01:28:02;;;;;;;34.70;24.87;;;;;;;;;;5010322;28;20097;-73
2022/01/16 01:30:29;;;;;;;55.30;35.20;;;;;;;;;;5008088;28;20042;-73
2022/01/16 01:32:56;;;;;;;59.28;37.17;;;;;;;;;;5009495;28;20042;-74
2022/01/16 01:35:23;;;;;;;50.35;33.25;;;;;;;;;;5012512;28;20104;-74
2022/01/16 01:37:49;;;;;;;51.30;34.92;;;;;;;;;;5010311;28;20057;-74
2022/01/16 01:40:20;;;;;;;55.60;36.40;;;;;;;;;;5013188;28;20108;-74
2022/01/16 01:51:13;;;;;;;42.47;29.70;;;;;;;;;;5005199;28;20112;-75
2022/01/16 01:53:41;;;;;;;38.10;28.45;;;;;;;;;;5012001;28;20094;-74
2022/01/16 01:56:09;;;;;;;40.25;27.42;;;;;;;;;;5006143;28;20046;-74
2022/01/16 01:58:36;;;;;;;44.10;29.13;;;;;;;;;;5013261;28;20049;-74
2022/01/16 02:01:03;;;;;;;36.90;24.92;;;;;;;;;;5013651;28;20054;-74
2022/01/16 02:06:26;;;;;;;34.78;24.67;;;;;;;;;;5012346;28;20465;-74
2022/01/16 02:08:54;;;;;;;36.67;24.17;;;;;;;;;;5013727;28;20101;-73
2022/01/16 02:11:24;;;;;;;34.88;24.67;;;;;;;;;;5011479;28;20049;-73
2022/01/16 02:35:26;;;;;;;30.02;21.40;;;;;;;;;;5010997;28;20100;-74
2022/01/16 02:37:53;;;;;;;27.10;18.27;;;;;;;;;;5009499;28;20113;-74
2022/01/16 02:40:24;;;;;;;30.13;19.98;;;;;;;;;;5011921;28;20054;-74
2022/01/16 02:42:52;;;;;;;32.42;22.33;;;;;;;;;;5008872;28;20096;-74
2022/01/16 02:45:28;;;;;;;;;;;;;;;;;;5012691;28;20103;-74
2022/01/16 02:47:56;;;;;;;30.57;21.27;;;;;;;;;;5013689;28;19972;-74
2022/01/16 02:50:23;;;;;;;28.67;20.55;;;;;;;;;;5012566;28;20078;-73
2022/01/16 02:52:49;;;;;;;28.63;20.00;;;;;;;;;;5013078;28;20046;-74
2022/01/16 02:55:16;;;;;;;30.80;20.55;;;;;;;;;;5012164;28;20107;-75
2022/01/16 02:57:43;;;;;;;30.25;20.45;;;;;;;;;;5012862;28;20509;-74
2022/01/16 03:00:10;;;;;;;30.33;20.27;;;;;;;;;;5012501;28;20046;-75
2022/01/16 03:02:36;;;;;;;29.15;19.77;;;;;;;;;;5002810;28;20560;-74
2022/01/16 03:05:04;;;;;;;30.67;20.25;;;;;;;;;;5013319;28;20384;-74
2022/01/16 03:07:30;;;;;;;29.10;19.48;;;;;;;;;;5011635;28;20437;-74
2022/01/16 03:10:21;;;;;;;28.13;19.92;;;;;;;;;;5012934;28;20101;-74
2022/01/16 03:12:49;;;;;;;30.27;20.75;;;;;;;;;;5011762;28;20069;-74
2022/01/16 03:15:16;;;;;;;28.35;19.80;;;;;;;;;;5011989;28;20046;-74
2022/01/16 03:23:18;;;;;;;29.67;19.67;;;;;;;;;;5012925;28;20045;-74
2022/01/16 03:25:45;;;;;;;30.05;21.08;;;;;;;;;;5007994;28;20306;-74
2022/01/16 03:28:11;;;;;;;29.25;19.98;;;;;;;;;;5013149;28;20092;-74
2022/01/16 03:30:38;;;;;;;33.33;21.75;;;;;;;;;;5011482;28;20579;-74
2022/01/16 03:33:04;;;;;;;28.55;18.10;;;;;;;;;;5011949;28;20049;-74
2022/01/16 03:35:30;;;;;;;29.58;19.55;;;;;;;;;;5011382;28;20061;-74
2022/01/16 03:37:57;;;;;;;28.95;18.38;;;;;;;;;;5012507;28;20038;-74
2022/01/16 03:40:25;;;;;;;32.47;21.13;;;;;;;;;;5011631;28;20061;-74
2022/01/16 03:42:51;;;;;;;32.83;21.05;;;;;;;;;;5012457;28;20096;-74
2022/01/16 03:45:18;;;;;;;28.02;20.02;;;;;;;;;;5011556;28;20053;-74
2022/01/16 03:47:44;;;;;;;28.00;19.30;;;;;;;;;;5012520;28;20444;-74
2022/01/16 03:50:11;;;;;;;27.10;19.63;;;;;;;;;;5011616;28;20062;-74
2022/01/16 03:52:37;;;;;;;31.45;20.00;;;;;;;;;;5012268;28;20077;-74
2022/01/16 03:55:07;;;;;;;30.95;20.85;;;;;;;;;;5012258;28;20050;-74
2022/01/16 03:57:34;;;;;;;33.05;20.33;;;;;;;;;;5010834;28;20045;-75
2022/01/16 04:00:00;;;;;;;29.77;20.50;;;;;;;;;;5012693;28;20053;-75
2022/01/16 04:02:27;;;;;;;32.78;21.65;;;;;;;;;;5010375;28;20405;-74
2022/01/16 04:04:53;;;;;;;29.38;20.10;;;;;;;;;;5012204;28;20052;-74
2022/01/16 04:07:26;;;;;;;28.65;20.88;;;;;;;;;;5010874;28;20065;-74
2022/01/16 04:09:52;;;;;;;29.83;20.95;;;;;;;;;;5012125;28;20493;-74
2022/01/16 04:12:22;;;;;;;43.80;28.02;;;;;;;;;;5010120;28;20092;-74
2022/01/16 04:17:23;;;;;;;42.50;26.95;;;;;;;;;;5010899;28;20053;-74
2022/01/16 04:19:50;;;;;;;39.55;25.15;;;;;;;;;;5012443;28;20116;-74
2022/01/16 04:22:17;;;;;;;34.47;24.80;;;;;;;;;;5005645;28;20100;-74
2022/01/16 04:24:44;;;;;;;41.57;25.20;;;;;;;;;;5011915;28;20101;-74
2022/01/16 04:27:11;;;;;;;33.67;22.40;;;;;;;;;;5011333;28;20314;-74
2022/01/16 04:29:38;;;;;;;37.50;22.85;;;;;;;;;;5011790;28;20049;-74
2022/01/16 04:32:05;;;;;;;31.58;20.83;;;;;;;;;;5011126;28;20058;-74
2022/01/16 04:34:31;;;;;;;30.58;21.02;;;;;;;;;;5011991;28;20046;-74
2022/01/16 04:36:58;;;;;;;28.88;20.00;;;;;;;;;;5011036;28;20044;-74
2022/01/16 04:39:31;;;;;;;26.88;19.35;;;;;;;;;;5011856;28;20108;-74
2022/01/16 04:44:43;;;;;;;23.98;17.98;;;;;;;;;;5011570;28;20123;-75
2022/01/16 04:47:11;;;;;;;28.00;18.52;;;;;;;;;;5000944;28;20065;-74
2022/01/16 04:49:37;;;;;;;27.08;19.15;;;;;;;;;;5011242;28;20383;-74
2022/01/16 04:52:04;;;;;;;25.88;17.17;;;;;;;;;;5010224;28;20089;-74
2022/01/16 04:54:31;;;;;;;29.77;17.35;;;;;;;;;;5011413;28;20552;-74
2022/01/16 04:56:58;;;;;;;28.13;17.73;;;;;;;;;;5010046;28;20054;-74
2022/01/16 04:59:24;;;;;;;27.50;17.60;;;;;;;;;;5011518;28;20085;-74
2022/01/16 05:01:51;;;;;;;25.50;17.50;;;;;;;;;;5010696;28;20058;-74
2022/01/16 05:04:17;;;;;;;29.52;19.60;;;;;;;;;;5011690;28;20050;-74
2022/01/16 05:06:44;;;;;;;25.63;18.30;;;;;;;;;;5010554;28;20144;-74
2022/01/16 05:09:10;;;;;;;27.80;18.25;;;;;;;;;;5013550;28;20414;-74
2022/01/16 05:11:37;;;;;;;29.92;17.80;;;;;;;;;;5014015;28;20045;-75
2022/01/16 05:16:35;;;;;;;33.53;20.98;;;;;;;;;;5014065;28;20042;-74
2022/01/16 05:19:07;;;;;;;40.85;24.55;;;;;;;;;;5015130;28;20486;-74
2022/01/16 05:21:34;;;;;;;30.17;18.67;;;;;;;;;;5014336;28;20564;-74
2022/01/16 05:24:03;;;;;;;20.70;14.25;;;;;;;;;;5015205;28;20107;-74
2022/01/16 05:26:29;;;;;;;22.02;16.33;;;;;;;;;;5014102;28;20050;-74
2022/01/16 05:28:56;;;;;;;30.38;19.33;;;;;;;;;;5015312;28;20053;-74
2022/01/16 05:31:23;;;;;;;30.23;20.20;;;;;;;;;;5010352;28;20042;-74
2022/01/16 05:33:49;;;;;;;29.13;19.53;;;;;;;;;;5015112;28;20042;-74
2022/01/16 05:36:18;;;;;;;33.72;20.95;;;;;;;;;;5013619;28;20826;-75
2022/01/16 05:38:44;;;;;;;30.70;19.55;;;;;;;;;;5014703;28;20457;-74
2022/01/16 05:41:11;;;;;;;34.05;22.08;;;;;;;;;;5008611;28;20050;-75
2022/01/16 05:43:38;;;;;;;22.92;14.23;;;;;;;;;;5014607;28;20085;-74
2022/01/16 05:46:04;;;;;;;23.52;16.15;;;;;;;;;;5013464;28;20096;-74
2022/01/16 05:48:31;;;;;;;31.15;19.67;;;;;;;;;;5015135;28;20565;-74
2022/01/16 05:50:57;;;;;;;31.95;19.23;;;;;;;;;;5013458;28;20045;-74
2022/01/16 05:53:24;;;;;;;26.77;18.02;;;;;;;;;;5012995;28;20383;-74
2022/01/16 05:55:50;;;;;;;32.40;19.27;;;;;;;;;;5013537;28;20042;-74
2022/01/16 05:58:17;;;;;;;28.80;18.98;;;;;;;;;;5014747;28;20045;-74
2022/01/16 06:00:47;;;;;;;26.30;18.45;;;;;;;;;;5009416;28;20050;-74
2022/01/16 06:03:14;;;;;;;26.25;18.17;;;;;;;;;;5006680;28;20081;-74
2022/01/16 06:05:41;;;;;;;29.38;19.17;;;;;;;;;;5013636;28;20057;-74
2022/01/16 06:08:11;;;;;;;27.75;18.52;;;;;;;;;;5014279;28;20070;-74
2022/01/16 06:10:38;;;;;;;25.13;17.15;;;;;;;;;;5011759;28;20049;-74
2022/01/16 06:13:05;;;;;;;24.83;17.33;;;;;;;;;;5015128;28;20466;-74
2022/01/16 06:15:32;;;;;;;25.10;17.50;;;;;;;;;;5010937;28;20627;-74
2022/01/16 06:18:00;;;;;;;26.40;18.75;;;;;;;;;;5014073;28;20129;-74
2022/01/16 06:20:27;;;;;;;27.92;17.95;;;;;;;;;;5011781;28;20054;-74
2022/01/16 06:22:53;;;;;;;27.40;17.60;;;;;;;;;;5012569;28;20100;-74
2022/01/16 06:25:20;;;;;;;29.48;18.08;;;;;;;;;;5012356;28;20053;-74
2022/01/16 06:27:47;;;;;;;26.30;18.08;;;;;;;;;;5012835;28;20625;-74
2022/01/16 06:30:13;;;;;;;30.40;18.63;;;;;;;;;;5012365;28;20100;-74
2022/01/16 06:32:40;;;;;;;26.02;17.63;;;;;;;;;;5012660;28;20486;-74
2022/01/16 06:35:07;;;;;;;26.42;18.27;;;;;;;;;;5013201;28;20096;-74
2022/01/16 06:37:34;;;;;;;29.60;19.15;;;;;;;;;;5013285;28;20463;-74
2022/01/16 06:40:01;;;;;;;23.45;16.83;;;;;;;;;;5013206;28;20626;-74
2022/01/16 06:42:28;;;;;;;22.88;16.38;;;;;;;;;;5012959;28;20104;-74
2022/01/16 06:44:54;;;;;;;25.88;17.30;;;;;;;;;;5013451;28;20050;-74
2022/01/16 06:47:21;;;;;;;23.73;16.55;;;;;;;;;;5002548;28;20100;-74
2022/01/16 06:49:47;;;;;;;24.88;15.68;;;;;;;;;;5013434;28;20161;-74
2022/01/16 06:52:14;;;;;;;24.30;16.13;;;;;;;;;;5012089;28;20116;-74
2022/01/16 06:54:41;;;;;;;26.02;16.90;;;;;;;;;;5012981;28;20096;-74
2022/01/16 06:57:08;;;;;;;19.38;14.90;;;;;;;;;;5011512;28;20517;-74
2022/01/16 06:59:38;;;;;;;26.03;16.60;;;;;;;;;;5011091;28;20046;-75
2022/01/16 07:02:05;;;;;;;21.75;15.40;;;;;;;;;;5011436;28;20050;-74
2022/01/16 07:04:32;;;;;;;24.20;15.40;;;;;;;;;;5012480;28;20531;-74
2022/01/16 07:06:59;;;;;;;23.85;15.80;;;;;;;;;;5012377;28;20061;-74
2022/01/16 07:09:25;;;;;;;20.17;15.10;;;;;;;;;;5013446;28;20045;-74
2022/01/16 07:11:52;;;;;;;22.00;15.52;;;;;;;;;;5012376;28;20050;-74
2022/01/16 07:14:18;;;;;;;21.95;15.20;;;;;;;;;;5012940;28;20054;-74
2022/01/16 07:16:44;;;;;;;21.05;14.60;;;;;;;;;;5011664;28;20410;-74
2022/01/16 07:19:11;;;;;;;21.40;14.88;;;;;;;;;;5013203;28;20461;-75
2022/01/16 07:21:37;;;;;;;22.70;14.38;;;;;;;;;;5011813;28;20532;-74
2022/01/16 07:24:04;;;;;;;19.60;14.65;;;;;;;;;;5012906;28;20505;-74
2022/01/16 07:26:30;;;;;;;21.25;14.85;;;;;;;;;;5008991;28;20057;-74
2022/01/16 07:28:57;;;;;;;21.25;15.63;;;;;;;;;;5011399;28;20104;-74
2022/01/16 07:31:23;;;;;;;23.55;15.45;;;;;;;;;;5007871;28;20050;-74
2022/01/16 07:33:50;;;;;;;21.60;14.35;;;;;;;;;;5011746;28;20053;-74
2022/01/16 07:36:16;;;;;;;20.63;14.07;;;;;;;;;;5007134;28;20054;-74
2022/01/16 07:38:43;;;;;;;25.25;16.13;;;;;;;;;;5012445;28;20054;-74
2022/01/16 07:41:09;;;;;;;27.23;15.88;;;;;;;;;;5011627;28;20050;-74
2022/01/16 07:43:36;;;;;;;27.10;16.13;;;;;;;;;;5012469;28;20383;-74
2022/01/16 07:46:04;;;;;;;23.20;14.43;;;;;;;;;;5004947;28;20132;-74
2022/01/16 07:48:31;;;;;;;25.20;15.40;;;;;;;;;;5008197;28;20053;-74
2022/01/16 07:50:57;;;;;;;22.27;14.85;;;;;;;;;;5005616;28;20046;-74
2022/01/16 07:53:24;;;;;;;23.92;15.50;;;;;;;;;;5007244;28;20049;-74
2022/01/16 07:55:50;;;;;;;21.00;13.75;;;;;;;;;;5011444;28;20049;-74
2022/01/16 07:58:17;;;;;;;20.55;14.38;;;;;;;;;;5012310;28;20049;-74
2022/01/16 08:00:43;;;;;;;21.05;13.98;;;;;;;;;;5011048;28;20576;-74
2022/01/16 08:03:10;;;;;;;23.73;14.63;;;;;;;;;;5011640;28;20489;-74
2022/01/16 08:05:36;;;;;;;20.52;14.00;;;;;;;;;;5011724;28;20096;-75
2022/01/16 08:08:03;;;;;;;20.50;13.93;;;;;;;;;;5011524;28;20103;-74
2022/01/16 08:10:30;;;;;;;24.70;14.83;;;;;;;;;;5010937;28;20050;-74
2022/01/16 08:12:58;;;;;;;20.23;13.65;;;;;;;;;;5012341;28;20041;-74
2022/01/16 08:15:25;;;;;;;20.20;14.23;;;;;;;;;;5011161;28;20643;-74
2022/01/16 08:17:52;;;;;;;23.40;13.70;;;;;;;;;;5011907;28;20050;-74
2022/01/16 08:20:18;;;;;;;19.27;14.20;;;;;;;;;;5010665;28;20096;-74
2022/01/16 08:22:45;;;;;;;22.73;13.90;;;;;;;;;;5010649;28;20185;-74
2022/01/16 08:25:12;;;;;;;23.90;17.88;;;;;;;;;;5010803;28;20104;-74
2022/01/16 08:27:38;;;;;;;25.85;15.38;;;;;;;;;;5012205;28;20107;-74
2022/01/16 08:30:05;;;;;;;21.50;16.00;;;;;;;;;;5012080;28;20084;-74
2022/01/16 08:32:32;;;;;;;24.70;15.77;;;;;;;;;;5007108;28;20096;-74
2022/01/16 08:34:59;;;;;;;22.15;15.57;;;;;;;;;;5011896;28;20050;-75
2022/01/16 08:37:26;;;;;;;24.45;17.42;;;;;;;;;;5011124;28;20058;-75
2022/01/16 08:39:52;;;;;;;25.23;16.67;;;;;;;;;;5011187;28;20096;-74
2022/01/16 08:42:19;;;;;;;24.45;17.52;;;;;;;;;;5008272;28;20486;-73
2022/01/16 08:44:45;;;;;;;26.45;16.75;;;;;;;;;;5014264;28;20111;-76
2022/01/16 08:47:12;;;;;;;21.48;15.77;;;;;;;;;;5014582;28;20089;-74
2022/01/16 08:49:38;;;;;;;21.52;15.32;;;;;;;;;;5015170;28;20045;-74
2022/01/16 08:52:05;;;;;;;19.77;13.60;;;;;;;;;;5013640;28;20072;-75
2022/01/16 08:54:33;;;;;;;20.98;15.18;;;;;;;;;;5015056;28;20049;-75
2022/01/16 08:57:00;;;;;;;19.30;14.73;;;;;;;;;;5014722;28;20103;-73
2022/01/16 08:59:27;;;;;;;20.88;14.82;;;;;;;;;;5014633;28;20057;-76
2022/01/16 09:01:53;;;;;;;20.92;15.40;;;;;;;;;;5012586;28;20481;-75
2022/01/16 09:04:20;;;;;;;23.02;15.48;;;;;;;;;;5014792;28;20049;-76
2022/01/16 09:06:47;;;;;;;20.55;14.15;;;;;;;;;;5014199;28;20062;-76
2022/01/16 09:09:13;;;;;;;18.50;14.30;;;;;;;;;;5014835;28;20099;-75
2022/01/16 09:11:39;;;;;;;18.30;13.30;;;;;;;;;;5013966;28;20100;-74
2022/01/16 09:14:06;;;;;;;16.33;13.35;;;;;;;;;;5014782;28;20046;-73
2022/01/16 09:16:33;;;;;;;20.33;15.85;;;;;;;;;;5013041;28;20089;-75
2022/01/16 09:19:00;;;;;;;22.60;16.70;;;;;;;;;;5014905;28;20472;-74
2022/01/16 09:21:26;;;;;;;30.20;19.30;;;;;;;;;;5008691;28;20050;-74
2022/01/16 09:23:53;;;;;;;27.23;18.02;;;;;;;;;;5014600;28;20049;-74
2022/01/16 09:26:19;;;;;;;24.05;16.33;;;;;;;;;;5013475;28;20049;-73
2022/01/16 09:28:46;;;;;;;17.75;13.77;;;;;;;;;;5014875;28;20054;-73
2022/01/16 09:31:12;;;;;;;18.60;14.10;;;;;;;;;;5013947;28;20053;-75
2022/01/16 09:33:39;;;;;;;17.75;14.52;;;;;;;;;;5014865;28;20391;-74
2022/01/16 09:36:06;;;;;;;19.55;14.55;;;;;;;;;;5012560;28;20042;-73
2022/01/16 09:38:32;;;;;;;16.17;12.77;;;;;;;;;;5014881;28;20548;-73
2022/01/16 09:40:59;;;;;;;12.50;11.18;;;;;;;;;;5013524;28;20116;-73
2022/01/16 09:43:26;;;;;;;12.43;10.18;;;;;;;;;;5014181;28;20046;-74
2022/01/16 09:45:53;;;;;;;14.30;11.27;;;;;;;;;;5008706;28;20038;-74
2022/01/16 09:48:20;;;;;;;17.42;13.75;;;;;;;;;;5009017;28;20049;-72
2022/01/16 09:50:47;;;;;;;16.08;13.38;;;;;;;;;;5013643;28;20096;-75
2022/01/16 09:53:14;;;;;;;17.50;14.55;;;;;;;;;;5014510;28;20057;-74
2022/01/16 09:55:40;;;;;;;16.17;14.10;;;;;;;;;;5010047;28;20038;-74
2022/01/16 09:58:07;;;;;;;18.10;15.32;;;;;;;;;;5006871;28;20057;-75
2022/01/16 10:00:33;;;;;;;16.13;13.48;;;;;;;;;;5013548;28;20045;-76
2022/01/16 10:03:00;;;;;;;16.38;12.80;;;;;;;;;;5014436;28;20485;-75
2022/01/16 10:05:27;;;;;;;14.60;13.17;;;;;;;;;;5013265;28;20050;-75
2022/01/16 10:07:56;;;;;;;19.05;15.35;;;;;;;;;;5014047;28;20053;-75
2022/01/16 10:10:50;;;;;;;16.88;15.18;;;;;;;;;;5013600;28;20818;-74
2022/01/16 10:13:20;;;;;;;17.98;16.02;;;;;;;;;;5013317;28;20049;-75
2022/01/16 10:15:54;;;;;;;44.90;40.33;;;;;;;;;;5012780;28;20041;-74
2022/01/16 10:18:41;;;;;;;38.15;34.30;;;;;;;;;;5013391;28;20041;-75
2022/01/16 10:21:08;;;;;;;23.13;20.65;;;;;;;;;;5012021;28;20139;-74
2022/01/16 10:23:42;;;;;;;22.73;20.38;;;;;;;;;;5013812;28;20445;-74
2022/01/16 10:26:22;;;;;;;19.70;16.30;;;;;;;;;;5011148;28;20104;-77
2022/01/16 10:28:50;;;;;;;15.85;14.25;;;;;;;;;;5014025;28;20046;-77
2022/01/16 10:31:22;;;;;;;16.23;14.63;;;;;;;;;;5011786;28;20050;-76
2022/01/16 10:33:49;;;;;;;15.15;13.55;;;;;;;;;;5013763;28;20046;-74
2022/01/16 10:36:34;;;;;;;15.30;12.93;;;;;;;;;;5012766;28;20054;-74
2022/01/16 10:39:04;;;;;;;15.10;13.32;;;;;;;;;;5013757;28;20046;-75
2022/01/16 10:41:31;;;;;;;14.43;12.75;;;;;;;;;;5012624;28;20042;-74
2022/01/16 10:43:57;;;;;;;13.85;12.43;;;;;;;;;;5013327;28;20038;-75
2022/01/16 10:46:27;;;;;;;13.77;12.47;;;;;;;;;;5003333;28;20104;-75
2022/01/16 10:49:11;;;;;;;9.73;8.48;;;;;;;;;;5000094;28;20133;-74
2022/01/16 10:51:38;;;;;;;11.68;7.95;;;;;;;;;;5011576;28;20073;-76
2022/01/16 10:54:05;;;;;;;;;;;;;;;;;;5011639;28;20045;-73
2022/01/16 10:56:34;;;;;;;13.90;10.10;;;;;;;;;;5012896;28;19967;-74
2022/01/16 10:59:20;;;;;;;12.43;10.13;;;;;;;;;;5012952;28;20054;-74
2022/01/16 11:02:05;;;;;;;16.23;10.40;;;;;;;;;;5012395;28;20054;-74
2022/01/16 11:04:31;;;;;;;13.52;10.82;;;;;;;;;;5012862;28;20451;-74
2022/01/16 11:07:05;;;;;;;14.60;10.52;;;;;;;;;;5011923;28;20049;-74
2022/01/16 11:09:32;;;;;;;13.15;10.25;;;;;;;;;;5012641;28;20046;-73
2022/01/16 11:12:02;;;;;;;14.33;10.87;;;;;;;;;;5012240;28;20058;-74
2022/01/16 11:14:29;;;;;;;12.77;9.82;;;;;;;;;;5012756;28;20058;-74
2022/01/16 11:16:56;;;;;;;13.95;9.82;;;;;;;;;;5012388;28;20050;-74
2022/01/16 11:19:24;;;;;;;17.08;9.82;;;;;;;;;;5012540;28;20819;-75
2022/01/16 11:21:56;;;;;;;15.95;9.48;;;;;;;;;;5012515;28;20053;-73
2022/01/16 11:26:53;;;;;;;13.10;8.27;;;;;;;;;;5012225;28;20045;-74
2022/01/16 11:29:19;;;;;;;11.98;8.98;;;;;;;;;;5012319;28;20494;-74
2022/01/16 11:31:48;;;;;;;12.27;8.88;;;;;;;;;;5012179;28;20081;-74
2022/01/16 11:34:15;;;;;;;11.57;7.90;;;;;;;;;;5012454;28;20045;-74
2022/01/16 11:36:43;;;;;;;10.18;7.47;;;;;;;;;;5012137;28;20096;-74
2022/01/16 11:39:10;;;;;;;10.65;7.00;;;;;;;;;;5012069;28;20551;-73
2022/01/16 11:41:50;;;;;;;7.72;6.53;;;;;;;;;;5011950;28;20551;-74
2022/01/16 11:44:22;;;;;;;8.98;7.43;;;;;;;;;;5011562;28;20046;-75
2022/01/16 11:46:50;;;;;;;8.30;6.85;;;;;;;;;;5012014;28;20049;-74
2022/01/16 11:49:30;;;;;;;7.82;7.03;;;;;;;;;;5012125;28;20064;-74
2022/01/16 11:52:02;;;;;;;8.43;7.13;;;;;;;;;;5011512;28;20500;-74
2022/01/16 11:54:29;;;;;;;10.13;7.50;;;;;;;;;;5011742;28;20050;-74
2022/01/16 11:56:55;;;;;;;9.03;7.33;;;;;;;;;;5011094;28;20076;-72
2022/01/16 11:59:36;;;;;;;8.97;7.67;;;;;;;;;;5011234;28;20744;-73
2022/01/16 12:02:03;;;;;;;12.25;8.35;;;;;;;;;;5011104;28;20101;-74
2022/01/16 12:04:29;;;;;;;10.25;8.73;;;;;;;;;;5011658;28;20054;-75
2022/01/16 12:07:00;;;;;;;9.20;7.83;;;;;;;;;;5008456;28;20062;-76
2022/01/16 12:12:11;;;;;;;9.20;7.15;;;;;;;;;;5011198;28;20811;-73
2022/01/16 12:14:47;;;;;;;9.18;7.63;;;;;;;;;;5010918;28;20049;-73
2022/01/16 12:17:27;;;;;;;7.18;6.47;;;;;;;;;;5010147;28;20042;-72
2022/01/16 12:19:54;;;;;;;7.60;6.57;;;;;;;;;;5010582;28;20470;-72
2022/01/16 12:22:42;;;;;;;7.03;6.32;;;;;;;;;;5010546;28;20490;-73
2022/01/16 12:25:15;;;;;;;7.13;6.43;;;;;;;;;;5008671;28;20050;-73
2022/01/16 12:27:46;;;;;;;8.10;6.47;;;;;;;;;;5010394;28;20049;-74
2022/01/16 12:30:12;;;;;;;6.75;6.03;;;;;;;;;;5010501;28;20052;-74
2022/01/16 12:32:49;;;;;;;7.17;6.47;;;;;;;;;;4993682;28;20047;-74
2022/01/16 12:35:36;;;;;;;8.30;6.65;;;;;;;;;;5011057;28;20084;-73
2022/01/16 12:38:06;;;;;;;8.68;6.18;;;;;;;;;;5010842;28;20100;-70
2022/01/16 12:40:32;;;;;;;6.28;5.68;;;;;;;;;;5010853;28;20050;-71
2022/01/16 12:43:01;;;;;;;6.30;5.25;;;;;;;;;;5009638;28;20453;-71
2022/01/16 12:45:29;;;;;;;5.38;4.88;;;;;;;;;;5010738;28;20104;-70
2022/01/16 12:47:57;;;;;;;5.93;5.10;;;;;;;;;;5009909;28;20058;-70
2022/01/16 12:50:23;;;;;;;5.22;4.70;;;;;;;;;;5010504;28;20049;-70
2022/01/16 12:52:49;;;;;;;6.05;5.40;;;;;;;;;;5010565;28;20190;-72
2022/01/16 12:55:16;;;;;;;7.07;5.35;;;;;;;;;;5010561;28;20671;-70
2022/01/16 12:57:42;;;;;;;5.75;5.18;;;;;;;;;;5010613;28;20559;-71
2022/01/16 13:00:12;;;;;;;7.22;5.38;;;;;;;;;;5010536;28;20073;-71
2022/01/16 13:02:38;;;;;;;6.30;5.18;;;;;;;;;;5010903;28;20057;-70
2022/01/16 13:05:05;;;;;;;8.82;6.20;;;;;;;;;;5010767;28;20142;-70
2022/01/16 13:07:58;;;;;;;5.38;4.88;;;;;;;;;;5010368;28;20104;-71
2022/01/16 13:10:25;;;;;;;6.60;4.63;;;;;;;;;;5008912;28;20413;-70
2022/01/16 13:12:51;;;;;;;6.30;4.95;;;;;;;;;;5010283;28;20049;-72
2022/01/16 13:15:21;;;;;;;5.82;4.25;;;;;;;;;;5011089;28;20382;-73
2022/01/16 13:17:47;;;;;;;6.20;4.20;;;;;;;;;;5010811;28;20046;-72
2022/01/16 13:20:20;;;;;;;5.00;4.35;;;;;;;;;;5011273;28;20046;-72
2022/01/16 13:22:47;;;;;;;5.18;4.53;;;;;;;;;;5010957;28;20054;-73
2022/01/16 13:25:13;;;;;;;5.97;4.53;;;;;;;;;;5008636;28;20053;-73
2022/01/16 13:27:41;;;;;;;8.23;5.00;;;;;;;;;;5010758;28;20053;-71
2022/01/16 13:30:11;;;;;;;6.00;4.43;;;;;;;;;;5013341;28;20085;-72
2022/01/16 13:32:38;;;;;;;7.22;5.20;;;;;;;;;;5014403;28;20092;-72
2022/01/16 13:35:17;;;;;;;8.25;5.20;;;;;;;;;;5014421;28;20108;-73
2022/01/16 13:37:44;;;;;;;7.40;5.38;;;;;;;;;;5014657;28;20052;-72
2022/01/16 13:40:12;;;;;;;7.45;5.30;;;;;;;;;;5000941;28;20069;-72
2022/01/16 13:45:14;;;;;;;7.63;5.10;;;;;;;;;;5014118;28;20104;-73
2022/01/16 13:47:59;;;;;;;9.63;5.30;;;;;;;;;;5014404;28;20737;-72
2022/01/16 13:50:27;;;;;;;7.85;5.57;;;;;;;;;;5013973;28;20077;-72
2022/01/16 13:52:55;;;;;;;10.70;7.07;;;;;;;;;;5014239;28;20045;-71
2022/01/16 13:55:22;;;;;;;10.45;5.95;;;;;;;;;;5014221;28;20410;-72
2022/01/16 13:57:48;;;;;;;8.07;6.83;;;;;;;;;;5014198;28;20104;-72
2022/01/16 14:00:15;;;;;;;18.33;13.40;;;;;;;;;;5013528;28;20096;-72
2022/01/16 14:02:42;;;;;;;26.52;16.10;;;;;;;;;;5013379;28;20108;-72
2022/01/16 14:05:09;;;;;;;21.45;14.63;;;;;;;;;;4998557;28;20046;-72
2022/01/16 14:07:35;;;;;;;33.58;19.50;;;;;;;;;;5012989;28;20057;-72
2022/01/16 14:10:02;;;;;;;45.88;26.17;;;;;;;;;;5013535;28;20053;-73
2022/01/16 14:12:28;;;;;;;20.25;12.80;;;;;;;;;;5013309;28;20096;-73
2022/01/16 14:14:55;;;;;;;25.25;15.60;;;;;;;;;;5012928;28;20046;-72
2022/01/16 14:22:18;;;;;;;15.25;10.27;;;;;;;;;;5013204;28;20046;-72
2022/01/16 14:24:48;;;;;;;28.60;15.35;;;;;;;;;;5011303;28;20065;-72
2022/01/16 14:27:21;;;;;;;14.23;8.45;;;;;;;;;;4995357;28;20588;-72
2022/01/16 14:29:48;;;;;;;19.25;11.02;;;;;;;;;;5012864;28;20049;-72
2022/01/16 14:32:15;;;;;;;;;;;;;;;;;;5013928;28;20124;-73
2022/01/16 14:34:43;;;;;;;14.98;9.60;;;;;;;;;;5013382;28;20376;-73
2022/01/16 14:37:10;;;;;;;22.45;11.50;;;;;;;;;;5012685;28;20046;-71
2022/01/16 14:39:37;;;;;;;23.38;12.40;;;;;;;;;;5013144;28;20173;-73
2022/01/16 14:42:05;;;;;;;24.13;12.60;;;;;;;;;;5011876;28;20054;-72
2022/01/16 14:44:32;;;;;;;23.05;12.57;;;;;;;;;;5013122;28;20283;-72
2022/01/16 14:46:59;;;;;;;34.17;19.63;;;;;;;;;;5012387;28;20663;-73
2022/01/16 14:49:26;;;;;;;17.67;11.75;;;;;;;;;;5010612;28;20045;-73
2022/01/16 14:51:53;;;;;;;11.88;8.68;;;;;;;;;;5012230;28;20506;-73
2022/01/16 14:54:40;;;;;;;16.27;11.90;;;;;;;;;;5009029;28;20123;-73
2022/01/16 14:57:07;;;;;;;12.68;8.77;;;;;;;;;;5012505;28;20084;-73
2022/01/16 14:59:34;;;;;;;26.15;17.00;;;;;;;;;;5012682;28;20552;-71
2022/01/16 15:02:01;;;;;;;25.20;15.73;;;;;;;;;;5013095;28;20116;-73
2022/01/16 15:04:27;;;;;;;11.32;7.65;;;;;;;;;;5012567;28;20080;-73
2022/01/16 15:06:54;;;;;;;20.20;14.00;;;;;;;;;;5012270;28;20061;-73
2022/01/16 15:09:20;;;;;;;20.23;13.90;;;;;;;;;;5012961;28;20045;-74
2022/01/16 15:11:47;;;;;;;21.13;13.55;;;;;;;;;;5012538;28;20108;-73
2022/01/16 15:14:13;;;;;;;16.02;11.43;;;;;;;;;;5012878;28;20053;-73
2022/01/16 15:16:40;;;;;;;18.23;12.70;;;;;;;;;;5012353;28;20445;-73
2022/01/16 15:19:13;;;;;;;;;;;;;;;;;;5012479;28;20137;-76
2022/01/16 15:24:15;;;;;;;23.88;15.10;;;;;;;;;;5010005;28;20564;-73
2022/01/16 15:26:41;;;;;;;27.02;19.80;;;;;;;;;;5011883;28;20096;-73
2022/01/16 15:29:11;;;;;;;14.82;10.88;;;;;;;;;;5012446;28;20485;-73
2022/01/16 15:31:38;;;;;;;16.08;13.10;;;;;;;;;;5010025;28;20096;-73